Time;durP1;ratioP1;P1;durP2;ratioP2;P2;SDS_P1;SDS_P2;PMS_P1;PMS_P2;Temp;Humidity;BMP_temperature;BMP_pressure;BME280_temperature;BME280_humidity;BME280_pressure;Samples;Min_cycle;Max_cycle;Signal;HPM_P1;HPM_P2
2022/10/29 00:00:37;;;;;;;10.60;5.43;;;16.90;99.90;;;;;;5034307;28;20472;-82
2022/10/29 00:03:04;;;;;;;10.00;5.40;;;16.90;99.90;;;;;;5033674;28;20969;-83
2022/10/29 00:05:31;;;;;;;13.27;6.07;;;16.90;99.90;;;;;;5046123;28;20835;-82
2022/10/29 00:07:58;;;;;;;8.63;5.47;;;16.90;99.90;;;;;;5047995;28;20449;-83
2022/10/29 00:10:26;;;;;;;10.13;5.73;;;16.90;99.90;;;;;;5052516;28;20480;-83
2022/10/29 00:12:53;;;;;;;12.23;6.27;;;16.90;99.90;;;;;;5035296;28;20483;-83
2022/10/29 00:15:20;;;;;;;14.17;6.50;;;16.90;99.90;;;;;;5044436;28;20460;-83
2022/10/29 00:17:50;;;;;;;15.23;5.53;;;16.90;99.90;;;;;;5052765;28;20454;-84
2022/10/29 00:20:19;;;;;;;10.30;4.90;;;16.90;99.90;;;;;;5050087;28;20456;-82
2022/10/29 00:22:46;;;;;;;11.33;5.97;;;16.90;99.90;;;;;;5033197;28;20974;-83
2022/10/29 00:25:13;;;;;;;8.53;5.40;;;16.90;99.90;;;;;;5042069;28;20817;-83
2022/10/29 00:27:41;;;;;;;10.03;5.50;;;16.90;99.90;;;;;;5052702;28;20472;-81
2022/10/29 00:30:09;;;;;;;9.53;5.40;;;16.90;99.90;;;;;;5052264;28;20450;-82
2022/10/29 00:32:36;;;;;;;12.40;5.50;;;16.90;99.90;;;;;;5052647;28;20488;-83
2022/10/29 00:35:03;;;;;;;11.40;5.80;;;16.90;99.90;;;;;;5052493;28;20579;-83
2022/10/29 00:37:30;;;;;;;9.90;6.40;;;17.00;99.90;;;;;;5053362;28;20456;-83
2022/10/29 00:39:56;;;;;;;9.03;5.70;;;16.90;99.90;;;;;;5052281;28;20460;-83
2022/10/29 00:42:23;;;;;;;10.40;5.70;;;16.90;99.90;;;;;;5050029;28;20475;-83
2022/10/29 00:44:51;;;;;;;8.67;4.87;;;16.90;99.90;;;;;;5043257;28;20458;-82
2022/10/29 00:47:22;;;;;;;7.93;5.40;;;16.90;99.90;;;;;;5051295;28;20953;-83
2022/10/29 00:49:53;;;;;;;10.57;5.80;;;16.90;99.90;;;;;;5052613;28;20463;-82
2022/10/29 00:52:22;;;;;;;11.70;5.80;;;16.90;99.90;;;;;;5013128;28;20490;-83
2022/10/29 00:54:51;;;;;;;11.10;6.13;;;16.90;99.90;;;;;;5023081;28;20536;-82
2022/10/29 00:57:25;;;;;;;13.73;6.50;;;17.00;99.90;;;;;;5052262;28;20452;-83
2022/10/29 00:59:54;;;;;;;10.33;5.50;;;17.00;99.90;;;;;;5038441;28;20537;-83
2022/10/29 01:02:22;;;;;;;12.67;6.30;;;17.00;99.90;;;;;;5033350;28;20465;-83
2022/10/29 01:04:49;;;;;;;8.20;5.23;;;17.00;99.90;;;;;;5036918;28;20974;-83
2022/10/29 01:07:16;;;;;;;7.40;5.50;;;16.90;99.90;;;;;;5052216;28;20459;-83
2022/10/29 01:09:43;;;;;;;12.43;5.50;;;17.00;99.90;;;;;;5051237;28;20458;-83
2022/10/29 01:12:39;;;;;;;10.43;6.23;;;17.00;99.90;;;;;;5047228;28;20492;-83
2022/10/29 01:15:15;;;;;;;9.37;6.07;;;16.90;99.90;;;;;;5032453;28;20461;-82
2022/10/29 01:17:52;;;;;;;13.57;6.30;;;16.90;99.90;;;;;;5035559;28;20440;-81
2022/10/29 01:20:40;;;;;;;10.23;5.40;;;16.90;99.90;;;;;;5035422;28;20450;-82
2022/10/29 01:23:28;;;;;;;11.50;6.80;;;16.90;99.90;;;;;;5036276;28;20438;-81
2022/10/29 01:26:24;;;;;;;14.90;7.10;;;16.90;99.90;;;;;;5049557;28;20446;-82
2022/10/29 01:29:08;;;;;;;9.47;6.30;;;16.90;99.90;;;;;;5051819;28;20973;-82
2022/10/29 01:31:43;;;;;;;7.67;5.70;;;16.80;99.90;;;;;;5055423;28;20495;-82
2022/10/29 01:34:17;;;;;;;19.30;7.03;;;16.80;99.90;;;;;;5055694;28;20435;-81
2022/10/29 01:36:52;;;;;;;13.37;6.17;;;16.80;99.90;;;;;;5049312;28;20488;-83
2022/10/29 01:39:28;;;;;;;12.43;6.03;;;16.80;99.90;;;;;;5052322;28;20933;-81
2022/10/29 01:42:02;;;;;;;11.60;5.60;;;16.80;99.90;;;;;;5041638;28;20479;-81
2022/10/29 01:44:34;;;;;;;16.97;6.20;;;16.80;99.90;;;;;;5056489;28;20530;-81
2022/10/29 01:47:04;;;;;;;9.17;5.57;;;16.70;99.90;;;;;;5037944;28;20449;-81
2022/10/29 01:49:36;;;;;;;10.20;6.00;;;16.70;99.90;;;;;;5036723;28;20449;-82
2022/10/29 01:52:05;;;;;;;9.00;5.30;;;16.70;99.90;;;;;;5037711;28;20514;-83
2022/10/29 01:54:32;;;;;;;13.40;6.03;;;16.60;99.90;;;;;;5039536;28;20455;-83
2022/10/29 01:57:00;;;;;;;8.87;5.70;;;16.60;99.90;;;;;;5052223;28;20464;-82
2022/10/29 01:59:29;;;;;;;10.57;6.43;;;16.60;99.90;;;;;;5036769;28;20790;-83
2022/10/29 02:02:10;;;;;;;9.50;5.90;;;16.60;99.90;;;;;;5036903;28;20490;-84
2022/10/29 02:04:53;;;;;;;10.20;5.60;;;16.60;99.90;;;;;;5039059;28;20446;-84
2022/10/29 02:07:30;;;;;;;10.77;6.37;;;16.50;99.90;;;;;;5056745;28;20495;-83
2022/10/29 02:10:07;;;;;;;14.77;6.30;;;16.50;99.90;;;;;;5055436;28;20549;-84
2022/10/29 02:12:38;;;;;;;12.00;6.33;;;16.50;99.90;;;;;;5044843;28;20984;-82
2022/10/29 02:15:09;;;;;;;9.57;5.53;;;16.50;99.90;;;;;;5037216;28;20466;-83
2022/10/29 02:17:37;;;;;;;11.33;6.20;;;16.50;99.90;;;;;;5037001;28;20818;-82
2022/10/29 02:20:05;;;;;;;10.50;6.20;;;16.40;99.90;;;;;;5034636;28;20455;-82
2022/10/29 02:22:32;;;;;;;11.93;5.90;;;16.40;99.90;;;;;;5036525;28;20476;-83
2022/10/29 02:24:59;;;;;;;11.20;5.77;;;16.40;99.90;;;;;;5036847;28;20462;-83
2022/10/29 02:27:26;;;;;;;11.27;6.17;;;16.40;99.90;;;;;;5051766;28;20480;-84
2022/10/29 02:29:53;;;;;;;9.70;6.67;;;16.30;99.90;;;;;;5038038;28;20466;-83
2022/10/29 02:32:20;;;;;;;11.50;5.43;;;16.30;99.90;;;;;;5038273;28;20888;-85
2022/10/29 02:34:48;;;;;;;9.57;6.17;;;16.30;99.90;;;;;;5055742;28;20484;-84
2022/10/29 02:37:14;;;;;;;15.83;6.40;;;16.30;99.90;;;;;;5056743;28;20448;-84
2022/10/29 02:39:41;;;;;;;11.50;5.63;;;16.20;99.90;;;;;;5054746;28;20455;-83
2022/10/29 02:42:08;;;;;;;9.50;6.10;;;16.20;99.90;;;;;;5036391;28;20476;-83
2022/10/29 02:44:35;;;;;;;9.67;5.77;;;16.20;99.90;;;;;;5036359;28;20494;-82
2022/10/29 02:47:01;;;;;;;12.80;6.37;;;16.20;99.90;;;;;;5051710;28;20476;-81
2022/10/29 02:49:28;;;;;;;10.93;5.73;;;16.10;99.90;;;;;;5035789;28;20460;-84
2022/10/29 02:51:57;;;;;;;15.27;5.93;;;16.20;99.90;;;;;;5036477;28;20476;-84
2022/10/29 02:54:23;;;;;;;9.57;6.33;;;16.10;99.90;;;;;;5036597;28;20495;-84
2022/10/29 02:56:50;;;;;;;11.00;5.60;;;16.10;99.90;;;;;;5054776;28;20474;-83
2022/10/29 02:59:17;;;;;;;11.60;6.77;;;16.10;99.90;;;;;;5055066;28;20471;-83
2022/10/29 03:01:44;;;;;;;12.37;6.60;;;16.10;99.90;;;;;;5055935;28;20463;-84
2022/10/29 03:04:11;;;;;;;11.63;6.40;;;16.00;99.90;;;;;;5053226;28;20545;-84
2022/10/29 03:06:38;;;;;;;13.90;6.60;;;16.00;99.90;;;;;;5052494;28;20544;-83
2022/10/29 03:09:06;;;;;;;9.93;5.73;;;16.00;99.90;;;;;;5055410;28;20458;-85
2022/10/29 03:11:33;;;;;;;12.90;7.17;;;16.00;99.90;;;;;;5053775;28;20479;-84
2022/10/29 03:14:00;;;;;;;13.40;5.83;;;16.00;99.90;;;;;;5055286;28;20487;-83
2022/10/29 03:16:26;;;;;;;12.67;7.03;;;15.90;99.90;;;;;;5055740;28;20450;-83
2022/10/29 03:18:53;;;;;;;14.33;6.60;;;15.90;99.90;;;;;;5046456;28;20463;-82
2022/10/29 03:21:20;;;;;;;13.67;6.40;;;15.90;99.90;;;;;;5050514;28;20567;-82
2022/10/29 03:23:47;;;;;;;11.03;5.40;;;15.90;99.90;;;;;;5070670;28;20520;-81
2022/10/29 03:26:15;;;;;;;11.30;5.20;;;15.90;99.90;;;;;;5049882;28;20936;-84
2022/10/29 03:28:42;;;;;;;11.33;6.07;;;15.90;99.90;;;;;;5035556;28;20453;-83
2022/10/29 03:31:08;;;;;;;8.87;5.60;;;15.80;99.90;;;;;;5048496;28;20482;-82
2022/10/29 03:33:35;;;;;;;7.70;4.87;;;15.80;99.90;;;;;;5056214;28;20498;-83
2022/10/29 03:36:05;;;;;;;11.77;5.47;;;15.90;99.90;;;;;;5043730;28;20974;-82
2022/10/29 03:38:32;;;;;;;12.50;6.53;;;15.90;99.90;;;;;;5033323;28;20453;-82
2022/10/29 03:41:00;;;;;;;9.97;4.80;;;15.90;99.90;;;;;;5046183;28;20476;-83
2022/10/29 03:43:28;;;;;;;13.50;5.67;;;15.80;99.90;;;;;;5055959;28;20446;-82
2022/10/29 03:45:56;;;;;;;11.67;6.27;;;15.80;99.90;;;;;;5051340;28;20808;-84
2022/10/29 03:48:24;;;;;;;11.10;6.03;;;15.80;99.90;;;;;;5054862;28;20453;-81
2022/10/29 03:50:56;;;;;;;10.87;5.67;;;15.80;99.90;;;;;;5037466;28;20480;-83
2022/10/29 03:53:23;;;;;;;13.93;5.70;;;15.80;99.90;;;;;;5035073;28;20515;-82
2022/10/29 03:55:50;;;;;;;13.27;6.63;;;15.80;99.90;;;;;;5035886;28;20823;-83
2022/10/29 03:58:17;;;;;;;13.10;5.80;;;15.80;99.90;;;;;;5034222;28;20506;-83
2022/10/29 04:00:53;;;;;;;8.40;5.80;;;15.80;99.90;;;;;;5035164;28;20523;-83
2022/10/29 04:03:20;;;;;;;11.27;5.50;;;15.80;99.90;;;;;;5035138;28;20433;-81
2022/10/29 04:05:47;;;;;;;8.50;6.00;;;15.80;99.90;;;;;;5044434;28;20486;-83
2022/10/29 04:08:13;;;;;;;11.37;5.67;;;15.80;99.90;;;;;;5054328;28;20808;-83
2022/10/29 04:10:44;;;;;;;12.43;6.07;;;15.80;99.90;;;;;;5055568;28;20471;-83
2022/10/29 04:13:11;;;;;;;12.30;5.90;;;15.80;99.90;;;;;;5043506;28;20903;-82
2022/10/29 04:15:37;;;;;;;9.30;5.47;;;15.80;99.90;;;;;;5043539;28;20543;-84
2022/10/29 04:18:06;;;;;;;8.37;5.03;;;15.80;99.90;;;;;;5044318;28;20456;-84
2022/10/29 04:20:33;;;;;;;11.37;5.97;;;15.80;99.90;;;;;;5035759;28;20482;-84
2022/10/29 04:22:59;;;;;;;11.23;6.40;;;15.80;99.90;;;;;;5037880;28;20445;-82
2022/10/29 04:25:26;;;;;;;12.50;6.80;;;15.80;99.90;;;;;;5049623;28;20803;-84
2022/10/29 04:27:54;;;;;;;11.83;5.73;;;15.80;99.90;;;;;;5034781;28;20459;-83
2022/10/29 04:30:21;;;;;;;15.70;6.27;;;15.80;99.90;;;;;;5042232;28;20455;-84
2022/10/29 04:32:47;;;;;;;14.03;6.80;;;15.80;99.90;;;;;;5055567;28;20711;-84
2022/10/29 04:35:16;;;;;;;10.53;5.83;;;15.80;99.90;;;;;;5052032;28;20459;-84
2022/10/29 04:37:43;;;;;;;13.70;5.77;;;15.80;99.90;;;;;;5036196;28;20852;-84
2022/10/29 04:40:10;;;;;;;11.70;6.73;;;15.80;99.90;;;;;;5054208;28;20459;-84
2022/10/29 04:42:37;;;;;;;13.37;6.63;;;15.70;99.90;;;;;;5055838;28;20923;-84
2022/10/29 04:45:06;;;;;;;9.33;6.10;;;15.70;99.90;;;;;;5050730;28;20456;-84
2022/10/29 04:47:33;;;;;;;8.50;5.70;;;15.70;99.90;;;;;;5055278;28;20473;-83
2022/10/29 04:50:00;;;;;;;9.43;6.80;;;15.60;99.90;;;;;;5054035;28;20458;-85
2022/10/29 04:52:28;;;;;;;10.73;6.00;;;15.70;99.90;;;;;;5058822;28;21025;-84
2022/10/29 04:54:54;;;;;;;10.67;5.83;;;15.60;99.90;;;;;;5058178;28;20458;-83
2022/10/29 04:57:21;;;;;;;9.50;5.60;;;15.60;99.90;;;;;;5039113;28;20453;-82
2022/10/29 04:59:48;;;;;;;7.87;5.60;;;15.70;99.90;;;;;;5037721;28;20459;-85
2022/10/29 05:02:15;;;;;;;11.70;5.43;;;15.60;99.90;;;;;;5039193;28;20503;-84
2022/10/29 05:04:41;;;;;;;13.70;7.73;;;15.60;99.90;;;;;;5040152;28;20824;-83
2022/10/29 05:07:08;;;;;;;10.20;5.83;;;15.70;99.90;;;;;;5041727;28;20445;-83
2022/10/29 05:09:37;;;;;;;10.60;5.87;;;15.60;99.90;;;;;;5042638;28;20545;-84
2022/10/29 05:12:05;;;;;;;13.10;5.80;;;15.60;99.90;;;;;;5046624;28;20472;-83
2022/10/29 05:14:32;;;;;;;10.47;7.60;;;15.60;99.90;;;;;;5038953;28;20495;-83
2022/10/29 05:16:58;;;;;;;9.80;5.60;;;15.60;99.90;;;;;;5039483;28;20467;-84
2022/10/29 05:19:25;;;;;;;9.50;5.50;;;15.60;99.90;;;;;;5038452;28;20452;-84
2022/10/29 05:21:52;;;;;;;12.83;5.40;;;15.60;99.90;;;;;;5042159;28;20483;-82
2022/10/29 05:24:18;;;;;;;8.97;6.00;;;15.60;99.90;;;;;;5058820;28;20454;-82
2022/10/29 05:26:47;;;;;;;13.00;6.77;;;15.60;99.90;;;;;;5057714;28;20455;-84
2022/10/29 05:29:13;;;;;;;12.77;6.23;;;15.60;99.90;;;;;;5057380;28;20452;-83
2022/10/29 05:31:40;;;;;;;10.20;6.40;;;15.60;99.90;;;;;;5056605;28;20486;-82
2022/10/29 05:34:07;;;;;;;10.30;5.63;;;15.70;99.90;;;;;;5038583;28;20488;-83
2022/10/29 05:36:34;;;;;;;11.23;5.77;;;15.70;99.90;;;;;;5052715;28;20460;-82
2022/10/29 05:39:00;;;;;;;10.13;5.97;;;15.70;99.90;;;;;;5055668;28;20536;-82
2022/10/29 05:41:27;;;;;;;11.30;6.13;;;15.70;99.90;;;;;;5042403;28;20495;-84
2022/10/29 05:43:55;;;;;;;9.83;5.70;;;15.70;99.90;;;;;;5053540;28;20443;-83
2022/10/29 05:46:22;;;;;;;9.50;6.50;;;15.70;99.90;;;;;;5056282;28;20455;-84
2022/10/29 05:48:49;;;;;;;13.60;6.73;;;15.70;99.90;;;;;;5057579;28;20459;-83
2022/10/29 05:51:16;;;;;;;15.50;6.30;;;15.70;99.90;;;;;;5055341;28;20479;-85
2022/10/29 05:53:42;;;;;;;8.10;5.70;;;15.70;99.90;;;;;;5037405;28;20496;-84
2022/10/29 05:56:09;;;;;;;10.23;5.50;;;15.70;99.90;;;;;;5047806;28;20921;-85
2022/10/29 05:58:36;;;;;;;10.93;5.90;;;15.80;99.90;;;;;;5054888;28;20447;-85
2022/10/29 06:01:07;;;;;;;10.70;6.53;;;15.80;99.90;;;;;;5054022;28;20479;-85
2022/10/29 06:03:34;;;;;;;9.53;5.77;;;15.80;99.90;;;;;;5055005;28;20440;-85
2022/10/29 06:06:01;;;;;;;9.10;5.70;;;15.80;99.90;;;;;;5054895;28;20554;-85
2022/10/29 06:08:27;;;;;;;9.17;5.60;;;15.80;99.90;;;;;;5054298;28;20997;-84
2022/10/29 06:10:54;;;;;;;9.10;6.07;;;15.80;99.90;;;;;;5054174;28;20475;-84
2022/10/29 06:13:22;;;;;;;16.27;6.00;;;15.80;99.90;;;;;;5040011;28;20489;-83
2022/10/29 06:15:55;;;;;;;11.90;6.93;;;15.90;99.90;;;;;;5035002;28;21006;-84
2022/10/29 06:18:24;;;;;;;8.87;5.97;;;15.90;99.90;;;;;;5034537;28;20465;-86
2022/10/29 06:20:51;;;;;;;13.27;5.93;;;15.90;99.90;;;;;;5034492;28;20484;-85
2022/10/29 06:23:17;;;;;;;9.40;5.90;;;15.90;99.90;;;;;;5047495;28;20833;-84
2022/10/29 06:25:44;;;;;;;11.57;5.27;;;15.90;99.90;;;;;;5053667;28;20452;-85
2022/10/29 06:28:14;;;;;;;10.20;5.53;;;15.90;99.90;;;;;;5052604;28;20452;-85
2022/10/29 06:30:45;;;;;;;11.60;7.00;;;15.90;99.90;;;;;;5053170;28;20517;-85
2022/10/29 06:33:12;;;;;;;12.37;6.00;;;15.90;99.90;;;;;;5040529;28;20452;-85
2022/10/29 06:35:40;;;;;;;11.03;5.60;;;15.90;99.90;;;;;;5033944;28;20455;-86
2022/10/29 06:38:07;;;;;;;10.20;5.90;;;15.90;99.90;;;;;;5038166;28;20791;-86
2022/10/29 06:40:34;;;;;;;10.80;5.87;;;16.00;99.90;;;;;;5054591;28;20567;-84
2022/10/29 06:43:01;;;;;;;11.23;6.27;;;16.00;99.90;;;;;;5050429;28;20808;-85
2022/10/29 06:45:28;;;;;;;10.50;5.60;;;16.00;99.90;;;;;;5040640;28;20459;-85
2022/10/29 06:47:55;;;;;;;9.67;6.10;;;16.00;99.90;;;;;;5033202;28;20456;-85
2022/10/29 06:50:22;;;;;;;10.43;6.53;;;16.00;99.90;;;;;;5041158;28;20538;-85
2022/10/29 06:52:57;;;;;;;9.57;5.70;;;16.10;99.90;;;;;;5054389;28;20455;-85
2022/10/29 06:55:25;;;;;;;11.17;7.37;;;16.10;99.90;;;;;;5054150;28;20534;-85
2022/10/29 06:57:57;;;;;;;13.30;6.00;;;16.10;99.90;;;;;;5042968;28;20452;-85
2022/10/29 07:00:24;;;;;;;10.00;6.53;;;16.10;99.90;;;;;;5033889;28;20529;-85
2022/10/29 07:02:51;;;;;;;9.33;6.87;;;16.20;99.90;;;;;;5035777;28;20456;-85
2022/10/29 07:05:18;;;;;;;11.67;6.70;;;16.20;99.90;;;;;;5043739;28;20453;-85
2022/10/29 07:07:44;;;;;;;10.73;6.37;;;16.20;99.90;;;;;;5034441;28;20460;-86
2022/10/29 07:10:13;;;;;;;10.03;6.00;;;16.30;99.90;;;;;;5035260;28;20471;-84
2022/10/29 07:12:40;;;;;;;11.90;6.33;;;16.30;99.90;;;;;;5037008;28;20459;-85
2022/10/29 07:15:08;;;;;;;10.40;6.23;;;16.30;99.90;;;;;;5058086;28;20480;-83
2022/10/29 07:17:35;;;;;;;11.03;6.30;;;16.40;99.90;;;;;;5057706;28;20459;-85
2022/10/29 07:20:03;;;;;;;8.83;6.37;;;16.40;99.90;;;;;;5056988;28;20531;-82
2022/10/29 07:22:29;;;;;;;7.90;4.80;;;16.40;99.90;;;;;;5057931;28;20453;-84
2022/10/29 07:24:56;;;;;;;11.00;6.00;;;16.40;99.90;;;;;;5040066;28;20459;-84
2022/10/29 07:27:25;;;;;;;10.37;5.67;;;16.50;99.90;;;;;;5036588;28;20460;-85
2022/10/29 07:29:51;;;;;;;6.93;5.43;;;16.50;99.90;;;;;;5037366;28;20457;-84
2022/10/29 07:32:18;;;;;;;9.10;5.73;;;16.50;99.90;;;;;;5037939;28;20561;-83
2022/10/29 07:34:45;;;;;;;10.87;6.90;;;16.60;99.90;;;;;;5053812;28;20553;-82
2022/10/29 07:37:12;;;;;;;9.00;5.27;;;16.60;99.90;;;;;;5040274;28;20461;-84
2022/10/29 07:39:39;;;;;;;11.83;6.17;;;16.70;99.90;;;;;;5036694;28;20457;-84
2022/10/29 07:42:05;;;;;;;8.67;5.23;;;16.70;99.90;;;;;;5037996;28;20486;-83
2022/10/29 07:44:33;;;;;;;8.73;4.63;;;16.70;99.90;;;;;;5052217;28;20449;-85
2022/10/29 07:47:01;;;;;;;11.90;5.53;;;16.80;99.90;;;;;;5057228;28;20453;-84
2022/10/29 07:49:28;;;;;;;8.93;5.53;;;16.80;99.90;;;;;;5055726;28;20468;-85
2022/10/29 07:51:55;;;;;;;11.77;5.53;;;16.80;99.90;;;;;;5056543;28;20563;-83
2022/10/29 07:54:22;;;;;;;12.83;5.90;;;16.90;99.90;;;;;;5044105;28;20492;-84
2022/10/29 07:56:51;;;;;;;12.43;5.90;;;17.00;99.90;;;;;;5037218;28;20544;-84
2022/10/29 07:59:18;;;;;;;10.20;6.50;;;17.00;99.90;;;;;;5036198;28;20460;-83
2022/10/29 08:01:46;;;;;;;16.57;6.27;;;17.10;99.90;;;;;;5036221;28;20927;-84
2022/10/29 08:04:13;;;;;;;7.80;5.37;;;17.10;99.90;;;;;;5047667;28;20450;-84
2022/10/29 08:06:40;;;;;;;7.77;5.30;;;17.20;99.90;;;;;;5048322;28;20459;-84
2022/10/29 08:09:07;;;;;;;8.10;5.97;;;17.30;99.90;;;;;;5031392;28;20540;-86
2022/10/29 08:11:34;;;;;;;7.40;5.20;;;17.30;99.90;;;;;;5033658;28;20478;-85
2022/10/29 08:14:01;;;;;;;9.97;5.07;;;17.30;99.90;;;;;;5038197;28;20488;-86
2022/10/29 08:16:28;;;;;;;8.57;6.43;;;17.40;99.90;;;;;;5034089;28;20453;-86
2022/10/29 08:18:56;;;;;;;10.03;5.37;;;17.40;99.90;;;;;;5032665;28;20455;-85
2022/10/29 08:21:23;;;;;;;6.50;4.50;;;17.50;99.90;;;;;;5034000;28;20476;-86
2022/10/29 08:23:50;;;;;;;11.83;6.40;;;17.50;99.90;;;;;;5035157;28;20458;-86
2022/10/29 08:26:17;;;;;;;13.30;6.07;;;17.60;99.90;;;;;;5040427;28;21004;-83
2022/10/29 08:28:44;;;;;;;10.77;5.90;;;17.60;99.90;;;;;;5038951;28;20460;-85
2022/10/29 08:31:10;;;;;;;11.97;6.10;;;17.70;99.90;;;;;;5048338;28;20470;-85
2022/10/29 08:33:37;;;;;;;9.23;5.90;;;17.70;99.90;;;;;;5040182;28;20453;-87
2022/10/29 08:36:06;;;;;;;9.53;6.17;;;17.70;99.90;;;;;;5041757;28;20457;-85
2022/10/29 08:38:33;;;;;;;11.43;6.03;;;17.80;99.90;;;;;;5058766;28;20461;-84
2022/10/29 08:41:14;;;;;;;9.90;6.13;;;17.90;99.90;;;;;;5058473;28;20492;-85
2022/10/29 08:44:18;;;;;;;14.67;7.10;;;17.90;99.90;;;;;;5052829;28;20547;-85
2022/10/29 08:46:49;;;;;;;7.73;5.00;;;18.00;99.90;;;;;;5037772;28;20450;-84
2022/10/29 08:49:19;;;;;;;11.27;5.00;;;18.00;99.90;;;;;;5035190;28;20952;-86
2022/10/29 08:51:53;;;;;;;11.47;5.90;;;18.00;99.90;;;;;;5036243;28;20464;-86
2022/10/29 08:54:22;;;;;;;15.27;5.70;;;18.00;99.90;;;;;;5049192;28;20884;-85
2022/10/29 08:56:52;;;;;;;7.70;5.60;;;18.10;99.90;;;;;;5056300;28;20798;-85
2022/10/29 08:59:22;;;;;;;9.47;5.27;;;18.20;99.90;;;;;;5055873;28;20455;-84
2022/10/29 09:01:49;;;;;;;10.67;5.30;;;18.30;99.90;;;;;;5056786;28;20473;-85
2022/10/29 09:04:24;;;;;;;11.77;5.17;;;18.40;99.90;;;;;;5047775;28;20443;-85
2022/10/29 09:07:10;;;;;;;7.27;4.30;;;18.50;99.90;;;;;;5040863;28;20472;-86
2022/10/29 09:09:40;;;;;;;9.30;4.00;;;18.60;99.90;;;;;;5041239;28;20455;-86
2022/10/29 09:12:37;;;;;;;11.83;5.23;;;18.70;99.90;;;;;;5042555;28;20481;-84
2022/10/29 09:15:30;;;;;;;7.47;4.80;;;18.80;99.90;;;;;;5058747;28;20470;-86
2022/10/29 09:18:10;;;;;;;10.00;5.43;;;19.00;99.90;;;;;;5059600;28;20465;-85
2022/10/29 09:20:45;;;;;;;9.60;4.47;;;19.10;99.90;;;;;;5058198;28;20476;-86
2022/10/29 09:23:22;;;;;;;9.47;5.00;;;19.20;99.90;;;;;;5055960;28;20443;-85
2022/10/29 09:25:55;;;;;;;11.67;4.43;;;19.20;99.90;;;;;;5035866;28;20432;-87
2022/10/29 09:28:32;;;;;;;9.13;4.33;;;19.30;99.90;;;;;;5035032;28;20440;-86
2022/10/29 09:31:09;;;;;;;11.80;4.80;;;19.40;99.90;;;;;;5035962;28;20538;-84
2022/10/29 09:33:36;;;;;;;5.27;3.90;;;19.40;99.90;;;;;;5036181;28;20448;-84
2022/10/29 09:36:14;;;;;;;9.83;5.20;;;19.50;99.90;;;;;;5034400;28;21004;-84
2022/10/29 09:38:51;;;;;;;8.70;5.13;;;19.60;99.90;;;;;;5035094;28;20454;-85
2022/10/29 09:41:21;;;;;;;8.77;4.33;;;19.70;99.90;;;;;;5032923;28;21000;-85
2022/10/29 09:43:55;;;;;;;6.27;4.30;;;19.80;99.90;;;;;;5040961;28;20455;-85
2022/10/29 09:46:30;;;;;;;10.97;3.67;;;19.90;99.90;;;;;;5054401;28;20486;-87
2022/10/29 09:49:03;;;;;;;8.00;3.93;;;20.00;99.90;;;;;;5054165;28;20451;-85
2022/10/29 09:51:41;;;;;;;8.40;3.80;;;20.00;99.90;;;;;;5054681;28;20483;-85
2022/10/29 09:54:09;;;;;;;8.73;4.03;;;20.10;99.90;;;;;;5045984;28;20448;-85
2022/10/29 09:56:40;;;;;;;12.47;4.50;;;20.10;99.90;;;;;;5034261;28;20457;-84
2022/10/29 09:59:15;;;;;;;9.73;4.20;;;20.20;99.90;;;;;;5035040;28;20968;-86
2022/10/29 10:01:41;;;;;;;11.67;5.30;;;20.30;99.90;;;;;;5033506;28;20479;-85
2022/10/29 10:04:19;;;;;;;8.50;3.67;;;20.30;99.90;;;;;;5042696;28;20452;-84
2022/10/29 10:07:01;;;;;;;8.80;3.90;;;20.40;99.90;;;;;;5054712;28;20424;-86
2022/10/29 10:09:29;;;;;;;9.90;4.47;;;20.50;99.90;;;;;;5053641;28;20440;-86
2022/10/29 10:11:58;;;;;;;9.00;4.33;;;20.60;99.90;;;;;;5053470;28;20468;-85
2022/10/29 10:14:26;;;;;;;8.33;4.00;;;20.70;99.90;;;;;;5044428;28;20496;-85
2022/10/29 10:16:57;;;;;;;5.83;3.47;;;20.70;99.90;;;;;;5048932;28;20478;-85
2022/10/29 10:19:26;;;;;;;13.80;4.40;;;20.70;99.90;;;;;;5053223;28;20452;-85
2022/10/29 10:21:58;;;;;;;9.73;4.07;;;20.80;99.90;;;;;;5054522;28;20479;-86
2022/10/29 10:24:32;;;;;;;8.63;4.00;;;20.90;99.90;;;;;;5060314;28;20428;-86
2022/10/29 10:26:58;;;;;;;7.03;4.17;;;20.80;99.90;;;;;;5056261;28;20433;-85
2022/10/29 10:29:26;;;;;;;6.23;4.17;;;20.90;99.90;;;;;;5055285;28;20504;-85
2022/10/29 10:32:14;;;;;;;8.80;4.43;;;20.90;99.90;;;;;;5042790;28;20465;-86
2022/10/29 10:34:41;;;;;;;11.60;4.27;;;21.00;99.90;;;;;;5047370;28;20472;-86
2022/10/29 10:37:17;;;;;;;12.23;4.40;;;21.10;99.90;;;;;;5056878;28;20462;-87
2022/10/29 10:39:47;;;;;;;8.80;3.60;;;21.30;99.90;;;;;;5054559;28;20436;-85
2022/10/29 10:42:18;;;;;;;7.77;4.20;;;21.60;99.90;;;;;;5058197;28;20491;-87
2022/10/29 10:44:51;;;;;;;9.67;3.70;;;22.00;99.90;;;;;;5054136;28;20443;-85
2022/10/29 10:47:21;;;;;;;10.80;4.43;;;22.40;99.90;;;;;;5053531;28;20542;-86
2022/10/29 10:49:49;;;;;;;9.03;4.03;;;23.10;99.90;;;;;;5045507;28;20530;-87
2022/10/29 10:52:19;;;;;;;9.40;4.33;;;23.30;99.90;;;;;;5035146;28;20473;-86
2022/10/29 10:54:56;;;;;;;10.17;3.83;;;23.60;99.90;;;;;;5039936;28;20568;-86
2022/10/29 10:57:25;;;;;;;7.47;3.97;;;23.90;99.90;;;;;;5035005;28;20453;-87
2022/10/29 11:00:02;;;;;;;9.10;3.77;;;24.50;99.90;;;;;;5033090;28;20452;-85
2022/10/29 11:02:37;;;;;;;8.43;3.60;;;24.70;99.90;;;;;;5038467;28;20471;-86
2022/10/29 11:05:12;;;;;;;8.73;3.40;;;24.90;99.90;;;;;;5044510;28;20446;-85
2022/10/29 11:07:45;;;;;;;9.10;4.43;;;24.80;99.90;;;;;;5040968;28;20452;-85
2022/10/29 11:10:16;;;;;;;7.47;3.20;;;24.50;99.90;;;;;;5036398;28;20540;-85
2022/10/29 11:12:47;;;;;;;8.23;3.70;;;24.50;99.90;;;;;;5053396;28;20433;-84
2022/10/29 11:15:20;;;;;;;8.53;3.63;;;25.00;99.90;;;;;;5053672;28;20488;-86
2022/10/29 11:17:52;;;;;;;8.47;4.10;;;25.20;99.90;;;;;;5055924;28;20432;-85
2022/10/29 11:20:23;;;;;;;7.40;3.30;;;24.80;99.90;;;;;;5053215;28;20948;-84
2022/10/29 11:22:59;;;;;;;7.70;3.10;;;24.60;99.90;;;;;;5053540;28;20569;-86
2022/10/29 11:25:34;;;;;;;10.80;3.90;;;25.10;99.90;;;;;;5036487;28;20448;-87
2022/10/29 11:28:09;;;;;;;14.00;5.10;;;26.10;99.90;;;;;;5032939;28;20464;-86
2022/10/29 11:30:42;;;;;;;9.40;4.53;;;26.90;99.90;;;;;;5033198;28;20479;-84
2022/10/29 11:33:18;;;;;;;10.80;3.73;;;27.80;99.90;;;;;;5043535;28;20498;-86
2022/10/29 11:35:49;;;;;;;9.63;3.90;;;28.40;99.90;;;;;;5052766;28;20479;-88
2022/10/29 11:38:19;;;;;;;9.23;3.40;;;28.90;99.90;;;;;;5052018;28;20505;-87
2022/10/29 11:40:57;;;;;;;6.07;2.80;;;29.20;99.90;;;;;;5040432;28;20579;-85
2022/10/29 11:43:24;;;;;;;8.60;4.23;;;29.20;99.90;;;;;;5033464;28;20551;-86
2022/10/29 11:45:59;;;;;;;11.73;4.17;;;29.60;99.90;;;;;;5035185;28;20449;-87
2022/10/29 11:48:40;;;;;;;8.00;4.40;;;30.10;99.90;;;;;;5033564;28;20866;-88
2022/10/29 11:51:17;;;;;;;9.07;4.67;;;29.90;99.90;;;;;;5052019;28;20471;-86
2022/10/29 11:53:58;;;;;;;11.10;4.10;;;30.00;99.90;;;;;;5049977;28;20966;-86
2022/10/29 11:56:40;;;;;;;14.43;4.50;;;30.10;99.90;;;;;;5053824;28;20689;-88
2022/10/29 11:59:16;;;;;;;8.00;3.80;;;29.80;99.90;;;;;;5051521;28;20434;-88
2022/10/29 12:01:52;;;;;;;11.07;4.70;;;29.70;99.90;;;;;;5053080;28;20472;-86
2022/10/29 12:04:30;;;;;;;11.00;5.03;;;29.80;99.90;;;;;;5047605;28;20451;-86
2022/10/29 12:07:09;;;;;;;15.70;9.80;;;29.90;99.90;;;;;;5052939;28;20443;-88
2022/10/29 12:10:02;;;;;;;9.83;4.70;;;29.90;99.90;;;;;;5053071;28;20559;-87
2022/10/29 12:12:37;;;;;;;9.80;4.07;;;29.50;99.90;;;;;;5048568;28;20472;-88
2022/10/29 12:15:13;;;;;;;12.57;4.70;;;29.60;99.90;;;;;;5034533;28;20848;-86
2022/10/29 12:17:47;;;;;;;6.43;3.20;;;29.60;99.90;;;;;;5033474;28;20461;-86
2022/10/29 12:20:22;;;;;;;6.00;3.93;;;29.00;99.90;;;;;;5028154;28;20552;-86
2022/10/29 12:22:55;;;;;;;7.83;3.67;;;28.20;99.90;;;;;;5023828;28;20956;-88
2022/10/29 12:25:31;;;;;;;7.60;3.37;;;27.90;99.90;;;;;;5032466;28;20453;-87
2022/10/29 12:28:17;;;;;;;9.97;4.03;;;27.40;99.90;;;;;;5046369;28;20448;-87
2022/10/29 12:30:54;;;;;;;8.03;4.07;;;26.90;99.90;;;;;;5037292;28;20586;-86
2022/10/29 12:33:25;;;;;;;10.00;4.63;;;26.40;99.90;;;;;;5037572;28;20445;-85
2022/10/29 12:35:58;;;;;;;8.13;4.40;;;25.80;99.90;;;;;;5032311;28;20469;-87
2022/10/29 12:38:37;;;;;;;14.57;4.30;;;25.40;99.90;;;;;;5031951;28;20459;-87
2022/10/29 12:41:07;;;;;;;9.60;5.80;;;25.10;99.90;;;;;;5032014;28;20481;-87
2022/10/29 12:43:38;;;;;;;12.47;5.13;;;24.80;99.90;;;;;;5042041;28;20492;-87
2022/10/29 12:46:15;;;;;;;13.20;4.80;;;24.60;99.90;;;;;;5049891;28;21049;-88
2022/10/29 12:48:50;;;;;;;11.03;4.63;;;24.50;99.90;;;;;;5043739;28;20499;-86
2022/10/29 12:51:23;;;;;;;7.03;3.97;;;24.40;99.90;;;;;;5032378;28;20467;-87
2022/10/29 12:54:04;;;;;;;8.53;3.90;;;24.20;99.90;;;;;;5046285;28;20448;-87
2022/10/29 12:56:32;;;;;;;16.10;4.33;;;24.20;99.90;;;;;;5052013;28;20567;-86